Time;durP1;ratioP1;P1;durP2;ratioP2;P2;SDS_P1;SDS_P2;PMS_P1;PMS_P2;Temp;Humidity;BMP_temperature;BMP_pressure;BME280_temperature;BME280_humidity;BME280_pressure;Samples;Min_cycle;Max_cycle;Signal;HPM_P1;HPM_P2
2022/04/11 00:01:10;;;;;;;4.33;2.13;;;4.40;99.90;;;;;;4996516;28;20463;-70
2022/04/11 00:03:59;;;;;;;4.30;2.20;;;4.40;99.90;;;;;;4995126;28;20482;-70
2022/04/11 00:06:47;;;;;;;4.40;2.10;;;4.30;99.90;;;;;;4994860;28;20536;-69
2022/04/11 00:09:35;;;;;;;2.37;2.10;;;4.30;99.90;;;;;;4995772;28;20530;-68
2022/04/11 00:12:25;;;;;;;2.90;2.20;;;4.30;99.90;;;;;;4997884;28;20554;-68
2022/04/11 00:15:13;;;;;;;5.07;2.10;;;4.30;99.90;;;;;;4997679;28;20473;-69
2022/04/11 00:18:01;;;;;;;5.33;3.17;;;4.20;99.90;;;;;;4997789;28;21122;-69
2022/04/11 00:20:50;;;;;;;4.20;2.00;;;4.30;99.90;;;;;;4997527;28;20481;-69
2022/04/11 00:23:38;;;;;;;5.33;2.20;;;4.30;99.90;;;;;;4997743;28;20480;-69
2022/04/11 00:26:28;;;;;;;5.33;2.47;;;4.30;99.90;;;;;;4997899;28;20465;-69
2022/04/11 00:29:17;;;;;;;4.47;3.00;;;4.20;99.90;;;;;;4998802;28;20468;-69
2022/04/11 00:32:06;;;;;;;4.73;2.40;;;4.20;99.90;;;;;;4997276;28;20484;-69
2022/04/11 00:34:54;;;;;;;4.17;2.27;;;4.20;99.90;;;;;;4996689;28;21082;-69
2022/04/11 00:37:42;;;;;;;3.70;1.60;;;4.10;99.90;;;;;;4996158;28;20907;-69
2022/04/11 00:40:31;;;;;;;4.10;2.17;;;4.10;99.90;;;;;;4995343;28;20488;-69
2022/04/11 00:43:32;;;;;;;2.20;1.77;;;4.10;99.90;;;;;;4998290;28;20537;-69
2022/04/11 00:46:21;;;;;;;4.83;2.60;;;4.10;99.90;;;;;;4995467;28;20510;-69
2022/04/11 00:49:10;;;;;;;2.90;2.20;;;4.00;99.90;;;;;;4996368;28;20487;-69
2022/04/11 00:51:58;;;;;;;6.57;2.20;;;4.00;99.90;;;;;;4996660;28;20832;-69
2022/04/11 00:54:47;;;;;;;2.80;2.07;;;4.00;99.90;;;;;;4993072;28;21083;-69
2022/04/11 00:57:35;;;;;;;3.60;2.20;;;3.90;99.90;;;;;;4998391;28;20516;-69
2022/04/11 01:00:23;;;;;;;2.47;1.90;;;3.90;99.90;;;;;;4999666;28;20610;-69
2022/04/11 01:03:13;;;;;;;2.33;1.87;;;3.90;99.90;;;;;;4994597;28;20532;-69
2022/04/11 01:06:02;;;;;;;4.83;2.57;;;3.90;99.90;;;;;;4998791;28;20461;-69
2022/04/11 01:08:50;;;;;;;4.20;2.33;;;3.80;99.90;;;;;;4997233;28;20482;-69
2022/04/11 01:11:38;;;;;;;6.10;1.90;;;3.80;99.90;;;;;;4996598;28;20476;-69
2022/04/11 01:14:26;;;;;;;3.30;2.20;;;3.80;99.90;;;;;;4995412;28;20485;-69
2022/04/11 01:17:14;;;;;;;3.90;2.07;;;3.80;99.90;;;;;;4999547;28;20464;-69
2022/04/11 01:20:12;;;;;;;2.67;2.13;;;3.80;99.90;;;;;;5002479;28;20456;-69
2022/04/11 01:23:01;;;;;;;3.40;2.20;;;3.70;99.90;;;;;;5002506;28;20567;-69
2022/04/11 01:25:51;;;;;;;4.17;2.23;;;3.70;99.90;;;;;;5001083;28;20539;-69
2022/04/11 01:28:39;;;;;;;3.70;2.20;;;3.60;99.90;;;;;;4998097;28;20610;-69
2022/04/11 01:31:27;;;;;;;2.63;1.93;;;3.60;99.90;;;;;;4998630;28;20592;-69
2022/04/11 01:34:15;;;;;;;3.73;2.23;;;3.60;99.90;;;;;;5003733;28;20612;-69
2022/04/11 01:37:04;;;;;;;5.43;2.13;;;3.60;99.90;;;;;;5001530;28;20882;-69
2022/04/11 01:39:54;;;;;;;4.60;2.30;;;3.60;99.90;;;;;;5004986;28;21065;-69
2022/04/11 01:42:43;;;;;;;5.17;2.50;;;3.60;99.90;;;;;;5001859;28;20604;-69
2022/04/11 01:45:31;;;;;;;6.80;2.30;;;3.60;99.90;;;;;;4995383;28;20611;-69
2022/04/11 01:48:20;;;;;;;8.63;2.67;;;3.60;99.90;;;;;;4997110;28;21046;-69
2022/04/11 01:51:08;;;;;;;2.80;2.30;;;3.60;99.90;;;;;;4997304;28;20595;-69
2022/04/11 01:53:56;;;;;;;3.30;2.10;;;3.60;99.90;;;;;;5001317;28;20491;-69
2022/04/11 01:56:46;;;;;;;3.40;2.60;;;3.60;99.90;;;;;;4998777;28;20532;-69
2022/04/11 01:59:34;;;;;;;5.43;2.30;;;3.60;99.90;;;;;;5003685;28;20541;-69
2022/04/11 02:02:22;;;;;;;3.63;2.27;;;3.60;99.90;;;;;;4997382;28;21348;-69
2022/04/11 02:05:11;;;;;;;5.60;2.70;;;3.60;99.90;;;;;;4994812;28;20464;-69
2022/04/11 02:07:59;;;;;;;5.23;2.27;;;3.50;99.90;;;;;;4996469;28;20472;-68
2022/04/11 02:10:48;;;;;;;2.93;1.97;;;3.50;99.90;;;;;;4996739;28;20925;-69
2022/04/11 02:13:38;;;;;;;4.60;2.10;;;3.50;99.90;;;;;;4999342;28;21004;-69
2022/04/11 02:16:26;;;;;;;4.37;2.27;;;3.40;99.90;;;;;;5000646;28;20476;-69
2022/04/11 02:19:15;;;;;;;2.83;2.33;;;3.40;99.90;;;;;;4999151;28;20616;-69
2022/04/11 02:22:03;;;;;;;4.80;2.33;;;3.40;99.90;;;;;;5003554;28;20523;-69
2022/04/11 02:24:51;;;;;;;4.43;2.40;;;3.40;99.90;;;;;;4994581;28;20610;-69
2022/04/11 02:27:40;;;;;;;6.47;3.00;;;3.40;99.90;;;;;;5001388;28;20555;-69
2022/04/11 02:30:29;;;;;;;2.50;2.30;;;3.30;99.90;;;;;;5000257;28;20535;-69
2022/04/11 02:33:18;;;;;;;6.27;2.20;;;3.30;99.90;;;;;;5001281;28;20738;-69
2022/04/11 02:36:06;;;;;;;2.90;2.00;;;3.30;99.90;;;;;;5000526;28;20568;-69
2022/04/11 02:38:54;;;;;;;2.67;1.90;;;3.30;99.90;;;;;;5000728;28;20634;-69
2022/04/11 02:41:42;;;;;;;4.90;2.57;;;3.30;99.90;;;;;;5003800;28;20468;-69
2022/04/11 02:44:31;;;;;;;4.80;2.00;;;3.20;99.90;;;;;;5001429;28;21072;-69
2022/04/11 02:47:21;;;;;;;3.83;2.67;;;3.20;99.90;;;;;;5003611;28;20507;-69
2022/04/11 02:50:10;;;;;;;3.40;2.27;;;3.20;99.90;;;;;;4998726;28;20456;-69
2022/04/11 02:52:58;;;;;;;6.53;2.57;;;3.20;99.90;;;;;;5003054;28;20583;-69
2022/04/11 02:55:47;;;;;;;4.77;2.10;;;3.30;99.90;;;;;;4999457;28;20595;-68
2022/04/11 02:58:35;;;;;;;3.33;2.10;;;3.30;99.90;;;;;;5003414;28;20574;-69
2022/04/11 03:01:23;;;;;;;3.67;2.47;;;3.30;99.90;;;;;;4997263;28;20909;-68
2022/04/11 03:04:12;;;;;;;5.20;2.33;;;3.30;99.90;;;;;;5001980;28;20480;-69
2022/04/11 03:07:00;;;;;;;4.33;2.40;;;3.30;99.90;;;;;;5001758;28;20576;-69
2022/04/11 03:09:48;;;;;;;6.07;2.20;;;3.40;99.90;;;;;;4994566;28;20548;-69
2022/04/11 03:12:37;;;;;;;4.97;2.63;;;3.40;99.90;;;;;;4994312;28;20578;-69
2022/04/11 03:15:25;;;;;;;3.27;2.10;;;3.30;99.90;;;;;;4997019;28;20499;-68
2022/04/11 03:18:13;;;;;;;3.87;2.27;;;3.30;99.90;;;;;;5003683;28;20477;-69
2022/04/11 03:21:02;;;;;;;3.00;2.67;;;3.30;99.90;;;;;;5002154;28;20558;-69
2022/04/11 03:23:50;;;;;;;2.87;2.30;;;3.30;99.90;;;;;;5001132;28;20898;-69
2022/04/11 03:26:39;;;;;;;3.97;2.27;;;3.30;99.90;;;;;;5002855;28;20534;-69
2022/04/11 03:29:27;;;;;;;4.53;2.70;;;3.30;99.90;;;;;;5002237;28;20566;-69
2022/04/11 03:32:15;;;;;;;4.97;2.37;;;3.30;99.90;;;;;;4998402;28;20611;-69
2022/04/11 03:35:03;;;;;;;4.00;2.30;;;3.30;99.90;;;;;;5000339;28;20992;-69
2022/04/11 03:37:53;;;;;;;3.70;2.37;;;3.20;99.90;;;;;;5002534;28;20492;-69
2022/04/11 03:40:41;;;;;;;4.90;2.20;;;3.20;99.90;;;;;;4999420;28;20623;-69
2022/04/11 03:43:29;;;;;;;3.77;2.30;;;3.20;99.90;;;;;;5002323;28;20586;-70
2022/04/11 03:46:17;;;;;;;8.13;3.13;;;3.20;99.90;;;;;;4997003;28;20582;-67
2022/04/11 03:49:06;;;;;;;2.97;2.50;;;3.10;99.90;;;;;;4993562;28;20484;-67
2022/04/11 03:51:54;;;;;;;3.23;2.53;;;3.20;99.90;;;;;;4995289;28;20462;-68
2022/04/11 03:54:43;;;;;;;5.27;3.13;;;3.20;99.90;;;;;;4993485;28;20677;-68
2022/04/11 03:57:31;;;;;;;5.27;2.77;;;3.10;99.90;;;;;;4998041;28;20578;-68
2022/04/11 04:00:19;;;;;;;5.10;2.40;;;3.10;99.90;;;;;;5002162;28;20543;-68
2022/04/11 04:03:08;;;;;;;2.90;2.47;;;3.10;99.90;;;;;;4994972;28;20525;-68
2022/04/11 04:05:57;;;;;;;4.37;2.40;;;3.10;99.90;;;;;;4998217;28;20544;-69
2022/04/11 04:08:45;;;;;;;6.53;2.53;;;3.10;99.90;;;;;;4996151;28;20575;-68
2022/04/11 04:11:35;;;;;;;3.50;2.20;;;3.10;99.90;;;;;;4994986;28;20895;-68
2022/04/11 04:14:24;;;;;;;3.07;2.77;;;3.10;99.90;;;;;;4997794;28;20615;-69
2022/04/11 04:17:12;;;;;;;6.20;2.43;;;3.10;99.90;;;;;;4998049;28;20960;-68
2022/04/11 04:20:00;;;;;;;4.80;3.00;;;3.10;99.90;;;;;;5000946;28;20506;-70
2022/04/11 04:22:49;;;;;;;3.83;2.60;;;3.10;99.90;;;;;;4995958;28;20877;-69
2022/04/11 04:25:37;;;;;;;5.83;2.47;;;3.10;99.90;;;;;;4994709;28;20535;-69
2022/04/11 04:28:27;;;;;;;4.50;2.40;;;3.00;99.90;;;;;;5003290;28;20499;-68
2022/04/11 04:31:15;;;;;;;6.73;2.93;;;3.00;99.90;;;;;;4999473;28;20465;-68
2022/04/11 04:34:03;;;;;;;4.80;2.40;;;3.00;99.90;;;;;;4994254;28;20897;-68
2022/04/11 04:36:51;;;;;;;5.03;2.67;;;3.00;99.90;;;;;;5001306;28;21030;-68
2022/04/11 04:39:39;;;;;;;3.40;2.47;;;3.00;99.90;;;;;;4998035;28;20465;-68
2022/04/11 04:42:27;;;;;;;3.40;2.53;;;3.00;99.90;;;;;;4992431;28;20453;-68
2022/04/11 04:45:18;;;;;;;4.13;2.90;;;3.00;99.90;;;;;;4999170;28;20496;-68
2022/04/11 04:48:07;;;;;;;5.57;4.20;;;3.00;99.90;;;;;;4992785;28;20579;-68
2022/04/11 04:50:56;;;;;;;5.10;3.20;;;3.00;99.90;;;;;;4994216;28;20582;-69
2022/04/11 04:53:45;;;;;;;4.67;3.20;;;3.10;99.90;;;;;;5001811;28;20536;-68
2022/04/11 04:56:33;;;;;;;7.83;3.30;;;3.10;99.90;;;;;;5000811;28;20694;-68
2022/04/11 04:59:21;;;;;;;3.50;3.07;;;3.10;99.90;;;;;;4998039;28;20480;-74
2022/04/11 05:02:11;;;;;;;4.70;3.40;;;3.10;99.90;;;;;;4987703;28;20456;-68
2022/04/11 05:05:04;;;;;;;5.63;3.90;;;3.10;99.90;;;;;;5002475;28;20491;-69
2022/04/11 05:07:52;;;;;;;5.63;3.40;;;3.10;99.90;;;;;;4997602;28;20479;-69
2022/04/11 05:10:40;;;;;;;4.87;3.27;;;3.10;99.90;;;;;;5002395;28;20969;-68
2022/04/11 05:13:28;;;;;;;5.83;3.70;;;3.20;99.90;;;;;;4998273;28;20550;-68
2022/04/11 05:16:18;;;;;;;3.60;3.30;;;3.20;99.90;;;;;;5003741;28;20460;-69
2022/04/11 05:19:08;;;;;;;3.70;3.37;;;3.30;99.90;;;;;;4996156;28;20464;-68
2022/04/11 05:21:56;;;;;;;4.30;3.57;;;3.30;99.90;;;;;;4988396;28;20521;-68
2022/04/11 05:24:44;;;;;;;7.47;3.70;;;3.30;99.90;;;;;;4998209;28;20823;-68
2022/04/11 05:27:32;;;;;;;5.97;3.53;;;3.40;99.90;;;;;;4999314;28;20566;-68
2022/04/11 05:30:21;;;;;;;6.80;3.87;;;3.40;99.90;;;;;;5002679;28;20558;-68
2022/04/11 05:33:10;;;;;;;4.17;3.77;;;3.40;99.90;;;;;;5000919;28;20615;-68
2022/04/11 05:35:59;;;;;;;7.43;4.90;;;3.40;99.90;;;;;;4996858;28;20526;-69
2022/04/11 05:38:48;;;;;;;4.40;3.27;;;3.50;99.90;;;;;;5000095;28;20482;-69
2022/04/11 05:41:36;;;;;;;5.23;3.87;;;3.60;99.90;;;;;;5003715;28;20452;-69
2022/04/11 05:44:25;;;;;;;6.00;4.17;;;3.60;99.90;;;;;;5004539;28;20500;-67
2022/04/11 05:47:13;;;;;;;6.60;3.50;;;3.70;99.90;;;;;;5000682;28;20537;-68
2022/04/11 05:50:01;;;;;;;5.23;3.80;;;3.80;99.90;;;;;;4995624;28;21050;-69
2022/04/11 05:52:50;;;;;;;7.73;3.90;;;3.80;99.90;;;;;;5002260;28;20923;-69
2022/04/11 05:55:39;;;;;;;9.40;4.70;;;3.80;99.90;;;;;;5005960;28;20513;-69
2022/04/11 05:58:27;;;;;;;5.40;3.93;;;3.90;99.90;;;;;;5006281;28;20543;-68
2022/04/11 06:01:15;;;;;;;10.57;4.50;;;4.00;99.90;;;;;;5001633;28;20462;-68
2022/04/11 06:04:04;;;;;;;4.60;3.90;;;4.00;99.90;;;;;;5005557;28;20630;-67
2022/04/11 06:06:52;;;;;;;5.83;3.97;;;4.10;99.90;;;;;;5003977;28;20476;-69
2022/04/11 06:09:42;;;;;;;8.33;4.57;;;4.20;99.90;;;;;;5008172;28;20460;-69
2022/04/11 06:12:34;;;;;;;4.70;4.27;;;4.30;99.90;;;;;;5003491;28;20504;-69
2022/04/11 06:15:22;;;;;;;6.90;4.00;;;4.30;99.90;;;;;;5005049;28;20877;-69
2022/04/11 06:18:14;;;;;;;5.50;3.87;;;4.40;99.90;;;;;;5002334;28;20476;-69
2022/04/11 06:21:03;;;;;;;6.73;4.17;;;4.50;99.90;;;;;;5003009;28;20449;-68
2022/04/11 06:23:51;;;;;;;5.83;3.97;;;4.60;99.90;;;;;;5004077;28;20492;-69
2022/04/11 06:26:40;;;;;;;5.70;3.90;;;4.70;99.90;;;;;;5002588;28;20492;-69
2022/04/11 06:29:28;;;;;;;5.63;4.40;;;4.80;99.90;;;;;;5006923;28;20492;-69
2022/04/11 06:32:16;;;;;;;6.13;3.70;;;4.90;99.90;;;;;;5004594;28;20457;-69
2022/04/11 06:35:06;;;;;;;5.13;3.80;;;5.00;99.90;;;;;;5004998;28;20505;-69
2022/04/11 06:37:54;;;;;;;8.07;3.80;;;5.10;99.90;;;;;;4999842;28;20630;-70
2022/04/11 06:40:42;;;;;;;4.50;3.23;;;5.20;99.90;;;;;;5003917;28;21074;-69
2022/04/11 06:43:31;;;;;;;7.07;3.23;;;5.20;99.90;;;;;;5004670;28;20573;-69
2022/04/11 06:46:19;;;;;;;6.67;4.40;;;5.30;99.90;;;;;;5002853;28;20550;-69
2022/04/11 06:49:07;;;;;;;3.73;3.27;;;5.40;99.90;;;;;;5004252;28;20511;-69
2022/04/11 06:51:56;;;;;;;7.47;3.70;;;5.50;99.90;;;;;;5007462;28;20953;-69
2022/04/11 06:54:45;;;;;;;4.30;3.20;;;5.60;99.90;;;;;;5002863;28;20647;-69
2022/04/11 06:57:33;;;;;;;7.03;3.67;;;5.70;99.90;;;;;;5004579;28;20565;-69
2022/04/11 07:00:23;;;;;;;3.67;2.70;;;5.80;99.90;;;;;;5001768;28;20588;-69
2022/04/11 07:03:11;;;;;;;3.73;3.30;;;5.90;99.90;;;;;;5003895;28;21114;-69
2022/04/11 07:06:00;;;;;;;4.87;2.73;;;5.90;99.90;;;;;;5004222;28;20460;-69
2022/04/11 07:08:48;;;;;;;6.43;3.30;;;6.00;99.90;;;;;;5004814;28;20611;-69
2022/04/11 07:11:37;;;;;;;4.77;3.03;;;6.00;99.90;;;;;;5002080;28;20624;-69
2022/04/11 07:14:25;;;;;;;7.20;3.77;;;6.10;99.90;;;;;;5002592;28;20547;-69
2022/04/11 07:17:15;;;;;;;6.03;3.17;;;6.20;99.90;;;;;;5004067;28;20543;-69
2022/04/11 07:20:04;;;;;;;6.50;3.50;;;6.20;99.90;;;;;;5003321;28;20603;-69
2022/04/11 07:22:52;;;;;;;5.20;3.20;;;6.30;99.90;;;;;;4995322;28;20574;-69
2022/04/11 07:25:40;;;;;;;6.13;3.87;;;6.30;99.90;;;;;;5004196;28;21034;-68
2022/04/11 07:28:28;;;;;;;8.20;3.33;;;6.40;99.90;;;;;;5000863;28;20468;-68
2022/04/11 07:31:17;;;;;;;6.93;4.10;;;6.50;99.90;;;;;;5000883;28;21026;-68
2022/04/11 07:34:06;;;;;;;4.13;3.17;;;6.50;99.90;;;;;;5000354;28;20537;-68
2022/04/11 07:36:54;;;;;;;7.40;3.67;;;6.60;99.90;;;;;;5005466;28;20914;-69
2022/04/11 07:39:43;;;;;;;5.23;3.70;;;6.70;99.90;;;;;;5002393;28;21038;-69
2022/04/11 07:42:31;;;;;;;7.43;4.40;;;6.70;99.90;;;;;;4998779;28;20785;-68
2022/04/11 07:45:19;;;;;;;6.30;3.30;;;6.70;99.90;;;;;;5001884;28;20638;-68
2022/04/11 07:48:08;;;;;;;11.07;3.70;;;6.70;99.90;;;;;;5002410;28;20848;-68
2022/04/11 07:50:57;;;;;;;5.27;3.10;;;6.70;99.90;;;;;;5004621;28;20476;-68
2022/04/11 07:53:46;;;;;;;6.23;3.33;;;6.80;99.90;;;;;;4999338;28;20480;-68
2022/04/11 07:56:34;;;;;;;3.90;3.50;;;6.90;99.90;;;;;;5003519;28;21012;-68
2022/04/11 07:59:22;;;;;;;7.33;3.20;;;7.00;99.90;;;;;;5005108;28;20523;-68
2022/04/11 08:02:11;;;;;;;8.17;3.50;;;7.00;99.90;;;;;;4998344;28;21061;-68
2022/04/11 08:05:01;;;;;;;5.10;3.20;;;7.00;99.90;;;;;;5004841;28;20540;-68
2022/04/11 08:07:52;;;;;;;4.40;3.00;;;7.10;99.90;;;;;;5000958;28;20476;-68
2022/04/11 08:10:40;;;;;;;7.63;3.10;;;7.20;99.90;;;;;;5002782;28;20457;-68
2022/04/11 08:13:28;;;;;;;4.53;2.80;;;7.30;99.90;;;;;;5002306;28;20468;-68
2022/04/11 08:16:16;;;;;;;6.03;2.87;;;7.40;99.90;;;;;;4999961;28;20468;-68
2022/04/11 08:19:04;;;;;;;7.23;3.13;;;7.40;99.90;;;;;;5001807;28;20531;-68
2022/04/11 08:21:53;;;;;;;7.53;2.70;;;7.40;99.90;;;;;;5002011;28;20546;-68
2022/04/11 08:24:42;;;;;;;4.00;2.80;;;7.50;99.90;;;;;;4997332;28;20635;-68
2022/04/11 08:27:31;;;;;;;5.20;2.80;;;7.60;99.90;;;;;;4999082;28;20498;-69
2022/04/11 08:30:19;;;;;;;5.60;3.17;;;7.60;99.90;;;;;;5004723;28;20607;-68
2022/04/11 08:33:08;;;;;;;4.50;2.90;;;7.60;99.90;;;;;;4998827;28;20614;-68
2022/04/11 08:35:56;;;;;;;6.93;3.00;;;7.60;99.90;;;;;;4998967;28;20524;-68
2022/04/11 08:38:46;;;;;;;5.17;2.93;;;7.70;99.90;;;;;;5004766;28;20627;-68
2022/04/11 08:41:38;;;;;;;3.73;2.50;;;7.80;99.90;;;;;;5002012;28;20606;-68
2022/04/11 08:44:27;;;;;;;3.90;2.13;;;7.80;99.90;;;;;;5001763;28;20530;-68
2022/04/11 08:47:15;;;;;;;3.03;2.50;;;7.90;99.90;;;;;;5000080;28;20464;-68
2022/04/11 08:50:05;;;;;;;4.63;2.60;;;7.90;99.90;;;;;;5001644;28;20520;-68
2022/04/11 08:52:56;;;;;;;3.10;2.47;;;7.90;99.90;;;;;;5001189;28;20546;-69
2022/04/11 08:55:44;;;;;;;4.30;2.57;;;8.00;99.90;;;;;;5001234;28;21128;-68
2022/04/11 08:58:34;;;;;;;3.57;2.10;;;8.10;99.90;;;;;;4999097;28;20618;-68
2022/04/11 09:01:23;;;;;;;5.00;2.73;;;8.20;99.90;;;;;;4998912;28;20602;-69
2022/04/11 09:04:11;;;;;;;5.20;2.77;;;8.30;99.90;;;;;;4997096;28;20553;-68
2022/04/11 09:07:01;;;;;;;4.10;2.50;;;8.40;99.90;;;;;;5001595;28;20983;-69
2022/04/11 09:09:49;;;;;;;2.97;2.00;;;8.50;99.90;;;;;;4996849;28;20602;-69
2022/04/11 09:12:47;;;;;;;4.30;2.43;;;8.60;99.90;;;;;;4999078;28;20464;-68
2022/04/11 09:15:42;;;;;;;4.10;2.30;;;8.70;99.90;;;;;;4999300;28;20979;-68
2022/04/11 09:18:46;;;;;;;5.20;2.37;;;8.70;99.90;;;;;;4997860;28;20864;-69
2022/04/11 09:21:45;;;;;;;9.43;2.40;;;8.70;99.90;;;;;;5002145;28;20461;-69
2022/04/11 09:24:33;;;;;;;4.30;2.10;;;8.70;99.90;;;;;;5000708;28;20672;-69
2022/04/11 09:27:24;;;;;;;5.40;2.40;;;8.80;99.90;;;;;;5002572;28;20885;-68
2022/04/11 09:30:20;;;;;;;2.93;2.00;;;8.70;99.90;;;;;;5002679;28;20506;-69
2022/04/11 09:33:11;;;;;;;5.60;2.87;;;8.70;99.90;;;;;;5000352;28;20504;-68
2022/04/11 09:35:59;;;;;;;2.73;2.43;;;8.70;99.90;;;;;;5001143;28;20535;-69
2022/04/11 09:38:57;;;;;;;1.97;1.40;;;8.80;99.90;;;;;;5003162;28;20589;-68
2022/04/11 09:41:46;;;;;;;2.37;1.40;;;8.80;99.90;;;;;;5005848;28;20776;-69
2022/04/11 09:44:37;;;;;;;4.43;2.10;;;8.90;99.90;;;;;;4981759;28;20984;-69
2022/04/11 09:47:59;;;;;;;4.00;2.17;;;8.90;99.90;;;;;;4986518;28;20488;-69
2022/04/11 09:50:49;;;;;;;1.87;1.50;;;9.00;99.90;;;;;;4983809;28;20543;-69
2022/04/11 09:53:38;;;;;;;2.47;1.80;;;9.10;99.90;;;;;;4994376;28;20601;-69
2022/04/11 09:56:27;;;;;;;3.63;2.03;;;9.20;99.90;;;;;;5007693;28;20467;-69
2022/04/11 09:59:15;;;;;;;4.20;2.40;;;9.30;99.90;;;;;;5004801;28;20575;-68
2022/04/11 10:02:05;;;;;;;3.43;1.90;;;9.30;99.90;;;;;;5001864;28;21030;-68
2022/04/11 10:04:54;;;;;;;3.90;2.53;;;9.40;99.90;;;;;;5002129;28;20702;-68
2022/04/11 10:07:46;;;;;;;5.30;2.20;;;9.50;99.90;;;;;;5003462;28;20930;-69
2022/04/11 10:10:38;;;;;;;5.80;1.90;;;9.60;99.90;;;;;;4999667;28;21117;-69
2022/04/11 10:13:26;;;;;;;3.10;1.70;;;9.80;99.90;;;;;;4995784;28;20481;-69
2022/04/11 10:16:14;;;;;;;3.17;1.97;;;9.80;99.90;;;;;;4981364;28;20485;-68
2022/04/11 10:19:03;;;;;;;1.50;1.40;;;9.80;99.90;;;;;;4983083;28;20464;-69
2022/04/11 10:21:55;;;;;;;2.33;1.50;;;9.90;99.90;;;;;;4984073;28;20519;-69
2022/04/11 10:24:58;;;;;;;1.70;1.60;;;10.00;99.90;;;;;;4983841;28;20661;-69
2022/04/11 10:27:46;;;;;;;4.03;1.70;;;10.10;99.90;;;;;;4982364;28;20587;-69
2022/04/11 10:30:34;;;;;;;4.10;2.20;;;10.10;99.90;;;;;;4983823;28;21171;-69
2022/04/11 10:33:40;;;;;;;3.10;2.17;;;10.10;99.90;;;;;;4993435;28;20575;-69
2022/04/11 10:36:34;;;;;;;3.10;1.80;;;10.10;99.90;;;;;;5004324;28;20460;-69
2022/04/11 10:39:26;;;;;;;1.90;1.80;;;10.10;99.90;;;;;;5006294;28;20563;-69
2022/04/11 10:42:20;;;;;;;4.30;2.40;;;10.10;99.90;;;;;;4999885;28;20450;-69
2022/04/11 10:45:29;;;;;;;2.80;1.87;;;10.20;99.90;;;;;;5005796;28;20535;-69
2022/04/11 10:48:18;;;;;;;2.27;2.00;;;10.40;99.90;;;;;;5004178;28;20473;-69
2022/04/11 10:51:16;;;;;;;5.03;2.60;;;10.40;99.90;;;;;;5006102;28;20827;-69
2022/04/11 10:54:19;;;;;;;2.43;2.20;;;10.60;99.90;;;;;;5005030;28;21099;-69
2022/04/11 10:57:34;;;;;;;2.60;2.00;;;10.60;99.90;;;;;;5007155;28;20452;-69
2022/04/11 11:00:23;;;;;;;2.27;1.53;;;10.60;99.90;;;;;;5003349;28;20499;-69
2022/04/11 11:03:13;;;;;;;2.70;1.70;;;10.50;99.90;;;;;;4999330;28;20640;-69
2022/04/11 11:06:19;;;;;;;3.93;2.60;;;10.60;99.90;;;;;;5005760;28;20460;-69
2022/04/11 11:09:16;;;;;;;5.03;2.70;;;10.70;99.90;;;;;;5004496;28;21039;-69
2022/04/11 11:12:19;;;;;;;5.77;3.00;;;10.70;99.90;;;;;;5005506;28;20453;-69
2022/04/11 11:15:30;;;;;;;4.40;2.73;;;10.80;99.90;;;;;;5004471;28;20961;-69
2022/04/11 11:18:19;;;;;;;5.33;1.80;;;11.00;99.90;;;;;;5000658;28;20507;-69
2022/04/11 11:21:09;;;;;;;3.13;2.13;;;11.00;99.90;;;;;;5002893;28;21037;-69
2022/04/11 11:24:10;;;;;;;2.40;2.20;;;10.90;99.90;;;;;;4990677;28;20547;-69
2022/04/11 11:27:03;;;;;;;1.90;1.53;;;10.90;99.90;;;;;;4998935;28;20455;-69
2022/04/11 11:29:52;;;;;;;5.03;2.40;;;10.80;99.90;;;;;;5001121;28;21021;-69
2022/04/11 11:32:43;;;;;;;3.47;2.00;;;10.80;99.90;;;;;;4996130;28;20596;-69
2022/04/11 11:35:31;;;;;;;7.23;2.00;;;10.70;99.90;;;;;;5002912;28;20472;-69
2022/04/11 11:38:23;;;;;;;3.60;2.00;;;10.70;99.90;;;;;;4998496;28;21036;-69
2022/04/11 11:41:11;;;;;;;2.93;2.00;;;10.80;99.90;;;;;;4997029;28;20605;-69
2022/04/11 11:44:00;;;;;;;2.90;1.70;;;10.90;99.90;;;;;;5002605;28;20468;-68
2022/04/11 11:46:49;;;;;;;2.63;1.90;;;11.10;99.90;;;;;;4989436;28;20542;-68
2022/04/11 11:49:43;;;;;;;2.60;1.77;;;11.30;99.90;;;;;;4996896;28;20503;-68
2022/04/11 11:52:32;;;;;;;3.63;1.83;;;11.60;99.90;;;;;;5001558;28;20872;-68
2022/04/11 11:55:20;;;;;;;4.20;1.87;;;11.70;99.90;;;;;;5004317;28;20554;-68
2022/04/11 11:58:09;;;;;;;3.40;1.97;;;11.80;99.90;;;;;;5003525;28;21038;-69
2022/04/11 12:00:57;;;;;;;1.80;1.70;;;11.90;99.90;;;;;;4998303;28;20488;-69
2022/04/11 12:06:58;;;;;;;2.30;2.10;;;12.20;99.90;;;;;;4996387;28;20591;-69
2022/04/11 12:09:46;;;;;;;2.50;2.07;;;12.30;99.90;;;;;;4997987;28;20570;-68
2022/04/11 12:12:34;;;;;;;3.10;2.10;;;12.40;99.90;;;;;;4993851;28;20476;-69
2022/04/11 12:15:23;;;;;;;3.70;2.23;;;12.50;99.90;;;;;;4992161;28;20467;-68
2022/04/11 12:18:12;;;;;;;2.47;2.10;;;12.70;99.90;;;;;;5002130;28;20527;-68
2022/04/11 12:21:10;;;;;;;3.10;2.50;;;12.70;99.90;;;;;;5001152;28;20634;-68
2022/04/11 12:24:00;;;;;;;4.50;2.27;;;12.90;99.90;;;;;;5001445;28;20480;-68
2022/04/11 12:26:51;;;;;;;4.50;2.57;;;13.10;99.90;;;;;;5001119;28;20628;-68
2022/04/11 12:29:40;;;;;;;2.30;2.10;;;13.20;99.90;;;;;;5000084;28;20554;-68
2022/04/11 12:32:30;;;;;;;3.07;2.20;;;13.40;99.90;;;;;;4994520;28;21145;-68
2022/04/11 12:35:20;;;;;;;5.83;2.10;;;13.70;99.90;;;;;;4994497;28;20465;-68
2022/04/11 12:38:10;;;;;;;4.07;1.67;;;13.90;99.90;;;;;;4994532;28;20492;-69
2022/04/11 12:40:59;;;;;;;2.37;2.17;;;14.20;99.90;;;;;;4995710;28;20514;-69
2022/04/11 12:44:10;;;;;;;3.03;2.03;;;14.30;99.90;;;;;;4995572;28;20487;-69
2022/04/11 12:47:06;;;;;;;4.10;2.23;;;14.40;99.90;;;;;;5001541;28;20467;-69
2022/04/11 12:49:54;;;;;;;2.33;2.13;;;14.60;99.90;;;;;;5004547;28;20452;-69
2022/04/11 12:52:45;;;;;;;6.83;2.00;;;14.80;99.90;;;;;;5004362;28;20627;-69
2022/04/11 12:55:35;;;;;;;2.43;2.07;;;14.80;99.90;;;;;;5001101;28;20540;-68
2022/04/11 12:58:25;;;;;;;3.70;2.43;;;14.60;99.90;;;;;;5000495;28;20534;-68
2022/04/11 13:01:13;;;;;;;2.50;2.07;;;14.40;99.90;;;;;;4998665;28;20844;-69
2022/04/11 13:04:01;;;;;;;2.50;2.30;;;14.20;99.90;;;;;;5001110;28;21056;-70
2022/04/11 13:06:50;;;;;;;5.43;2.77;;;14.10;99.90;;;;;;4992929;28;20545;-70
2022/04/11 13:09:40;;;;;;;2.67;2.30;;;14.40;99.90;;;;;;4999662;28;22052;-69
2022/04/11 13:12:28;;;;;;;4.20;2.30;;;14.80;99.90;;;;;;5005795;28;20605;-69
2022/04/11 13:15:18;;;;;;;2.83;2.10;;;15.20;99.90;;;;;;5003320;28;20468;-69
2022/04/11 13:18:24;;;;;;;4.30;1.80;;;15.60;99.90;;;;;;5002845;28;20991;-69
2022/04/11 13:21:12;;;;;;;3.37;2.10;;;16.00;99.90;;;;;;5000985;28;20592;-69
2022/04/11 13:24:07;;;;;;;4.60;2.07;;;16.50;99.90;;;;;;5001289;28;20526;-70
2022/04/11 13:26:55;;;;;;;2.60;1.90;;;16.90;99.90;;;;;;4998210;28;20518;-71
2022/04/11 13:29:43;;;;;;;3.77;2.53;;;17.20;99.90;;;;;;4995816;28;20464;-69
2022/04/11 13:32:33;;;;;;;2.30;2.00;;;17.30;99.90;;;;;;4983548;28;20484;-69
2022/04/11 13:35:21;;;;;;;3.60;1.90;;;17.60;99.90;;;;;;4995283;28;20465;-69
2022/04/11 13:38:09;;;;;;;2.60;1.80;;;18.00;99.90;;;;;;4999870;28;20472;-70
2022/04/11 13:40:57;;;;;;;3.70;2.00;;;18.60;99.90;;;;;;4996654;28;20483;-70
2022/04/11 13:43:46;;;;;;;3.47;2.20;;;19.20;99.90;;;;;;4995635;28;20484;-68
2022/04/11 13:46:34;;;;;;;2.43;1.93;;;19.30;99.90;;;;;;4997993;28;20456;-68
2022/04/11 13:49:24;;;;;;;1.57;1.47;;;19.20;99.90;;;;;;5000137;28;20599;-68
2022/04/11 13:52:12;;;;;;;3.50;2.03;;;19.30;99.90;;;;;;5003376;28;20463;-68
2022/04/11 13:55:00;;;;;;;2.87;2.00;;;19.40;99.90;;;;;;5001307;28;20528;-70
2022/04/11 13:57:48;;;;;;;6.27;2.50;;;19.50;99.90;;;;;;4999665;28;20500;-70
2022/04/11 14:00:41;;;;;;;1.93;1.77;;;19.40;99.90;;;;;;4992010;28;20592;-70
2022/04/11 14:03:29;;;;;;;2.17;2.00;;;19.40;99.20;;;;;;4977291;28;20480;-71
2022/04/11 14:06:19;;;;;;;2.50;2.03;;;19.30;96.40;;;;;;4984652;28;20452;-70
2022/04/11 14:09:09;;;;;;;3.47;2.00;;;19.00;96.90;;;;;;4990129;28;20486;-70
2022/04/11 14:12:18;;;;;;;3.40;2.07;;;19.00;98.10;;;;;;4991781;28;20448;-70
2022/04/11 14:15:07;;;;;;;3.17;1.83;;;18.90;97.10;;;;;;4998105;28;20518;-70
2022/04/11 14:17:56;;;;;;;2.40;2.20;;;18.80;97.50;;;;;;4999905;28;20952;-69
2022/04/11 14:20:44;;;;;;;4.57;2.23;;;18.40;97.80;;;;;;4993199;28;20449;-70
2022/04/11 14:23:35;;;;;;;3.37;2.10;;;18.20;98.90;;;;;;4998450;28;21226;-69
2022/04/11 14:26:24;;;;;;;2.20;1.90;;;18.10;99.10;;;;;;4988752;28;20469;-69
2022/04/11 14:29:12;;;;;;;2.10;1.90;;;18.10;99.20;;;;;;4983312;28;20561;-69
2022/04/11 14:32:00;;;;;;;2.40;2.20;;;17.90;98.70;;;;;;4984392;28;20460;-69
2022/04/11 14:34:48;;;;;;;3.13;1.87;;;18.00;99.90;;;;;;4993273;28;20485;-69
2022/04/11 14:37:37;;;;;;;2.53;2.30;;;18.00;97.60;;;;;;4989652;28;20592;-70
2022/04/11 14:40:26;;;;;;;3.27;1.90;;;18.10;97.30;;;;;;4991187;28;20477;-69
2022/04/11 14:43:15;;;;;;;2.23;2.03;;;17.90;97.90;;;;;;4987067;28;20630;-69
2022/04/11 14:46:04;;;;;;;2.00;1.80;;;17.90;98.00;;;;;;4996356;28;21394;-71
2022/04/11 14:48:53;;;;;;;3.73;2.10;;;18.00;97.00;;;;;;5001972;28;20491;-70
2022/04/11 14:51:41;;;;;;;3.10;1.80;;;17.80;96.90;;;;;;5004540;28;20563;-69
2022/04/11 14:54:29;;;;;;;3.83;1.90;;;17.50;97.70;;;;;;5001239;28;21004;-69